Mokihana — WNRD — position and weather

sailwx.info

Track history (hours):
 
Tides and Currents Weather Stations Pressure Air Temp Water Temp Dewpoint Dewpoint Depression Visibility Wind Speed Wind Dir Waves Ship Positions

Mokihana

Owner: MATSON NAVIGATION CO, Tacoma, WA. More information available from US FCC via Universal Licensing System and Coast Guard Vessel Documentation Center.

Last reported at 2018-Jan-18 00:00 UTC. Time now 2018-Jan-22 22:28 UTC.
Position N 21°36' W 156°00'.

Type: Ship. MMSI: 367196000.

Wind from 050 at 30 knots

Barometer 1021.8 mb
Air temperature 23.5 ° C
Dewpoint 19.6 ° C
Water temperature 23.3 ° C

Date/timePositionNaut miles runAvg speedWind from/ knotsBaromVisibWave heightAir tempDewpointWater temp
2018-Jan-18 00:00N 21°36' W 156°00'   050 / 301021.8 23.519.623.3
2018-Jan-15 12:00N 25°36' W 133°30'52121.7 330 / 171019.210.8 19.016.521.0
2018-Jan-14 12:00N 29°36' W 124°48'417 8.1 360 / 121019.0 16.012.417.0
2018-Jan-12 08:26N 33°41' W 118°11'4 9.2
2018-Jan-12 08:00N 33°37' W 118°14'4 8.9
2018-Jan-12 07:30N 33°36' W 118°19'5 9.0
2018-Jan-12 07:00N 33°37' W 118°24'510.0
2018-Jan-12 06:30N 33°40' W 118°29'5 9.9
2018-Jan-12 05:58N 33°43' W 118°35'510.0
2018-Jan-12 05:30N 33°45' W 118°39'914.1
2018-Jan-12 04:53N 33°49' W 118°49'718.6
2018-Jan-12 04:30N 33°53' W 118°56'1020.3
2018-Jan-12 04:00N 33°58' W 119°06'1020.0
2018-Jan-12 03:29N 34°03' W 119°17'1019.9
2018-Jan-12 03:00N 34°05' W 119°29'1020.4
2018-Jan-12 02:30N 34°08' W 119°40'1020.5
2018-Jan-12 02:00N 34°11' W 119°53'1020.5
2018-Jan-12 01:29N 34°14' W 120°05'1119.9
2018-Jan-12 00:57N 34°15' W 120°17'920.2
2018-Jan-12 00:30N 34°15' W 120°29'1019.9
2018-Jan-12 00:00N 34°17' W 120°40'919.1
2018-Jan-11 23:30N 34°24' W 120°48'1019.5
2018-Jan-11 23:00N 34°30' W 120°57'1020.4
2018-Jan-11 22:31N 34°38' W 121°04'1020.4
2018-Jan-11 22:00N 34°47' W 121°11'1020.7
2018-Jan-11 21:31N 34°55' W 121°19'1020.4
2018-Jan-11 21:01N 35°04' W 121°26'1020.6
2018-Jan-11 20:31N 35°12' W 121°33'1020.6
2018-Jan-11 20:01N 35°20' W 121°40'1020.0
2018-Jan-11 19:30N 35°29' W 121°47'1020.1
2018-Jan-11 19:00N 35°37' W 121°55'1020.2
2018-Jan-11 18:30N 35°45' W 122°02'1020.3
2018-Jan-11 18:00N 35°53' W 122°09'1020.1
2018-Jan-11 17:30N 36°01' W 122°16'1019.8
2018-Jan-11 17:00N 36°10' W 122°22'1019.9
2018-Jan-11 16:30N 36°20' W 122°26'1019.8
2018-Jan-11 16:00N 36°29' W 122°29'1219.6
2018-Jan-11 15:25N 36°40' W 122°33'819.4
2018-Jan-11 14:59N 36°48' W 122°36'1019.6
2018-Jan-11 14:29N 36°57' W 122°40'1019.7
2018-Jan-11 13:58N 37°08' W 122°43'920.0
2018-Jan-11 13:31N 37°17' W 122°43'1020.3
2018-Jan-11 13:01N 37°27' W 122°43'1019.5
2018-Jan-11 12:31N 37°37' W 122°43'816.4
2018-Jan-11 12:00N 37°45' W 122°41'713.3
2018-Jan-11 11:31N 37°47' W 122°33'714.8
2018-Jan-11 11:01N 37°50' W 122°25'5 9.7
2018-Jan-11 10:30N 37°48' W 122°19'1 2.0
2018-Jan-11 10:00N 37°48' W 122°18'0 0.0
2018-Jan-11 09:31N 37°48' W 122°18'0 0.0
2018-Jan-11 08:59N 37°48' W 122°18'0 0.0
2018-Jan-11 08:29N 37°48' W 122°18'0 0.0
2018-Jan-11 07:59N 37°48' W 122°18'0 0.0
2018-Jan-11 07:29N 37°48' W 122°18'0 0.0
2018-Jan-11 06:59N 37°48' W 122°18'0 0.0
2018-Jan-11 06:29N 37°48' W 122°18'0 0.0
2018-Jan-11 05:59N 37°48' W 122°18'0 0.0
2018-Jan-11 05:26N 37°48' W 122°18'0 0.0
2018-Jan-11 04:59N 37°48' W 122°18'0 0.0
2018-Jan-11 04:29N 37°48' W 122°18'0 0.0
2018-Jan-11 03:59N 37°48' W 122°18'0 0.0
2018-Jan-11 03:29N 37°48' W 122°18'0 0.0
2018-Jan-11 02:59N 37°48' W 122°18'0 0.0
2018-Jan-11 02:29N 37°48' W 122°18'0 0.0
2018-Jan-11 01:59N 37°48' W 122°18'0 0.0
2018-Jan-11 01:29N 37°48' W 122°18'0 0.0
2018-Jan-11 00:59N 37°48' W 122°18'0 0.0
2018-Jan-11 00:29N 37°48' W 122°18'0 0.0
2018-Jan-10 23:59N 37°48' W 122°18'0 0.0
2018-Jan-10 23:29N 37°48' W 122°18'0 0.0
2018-Jan-10 22:59N 37°48' W 122°18'0 0.0
2018-Jan-10 22:29N 37°48' W 122°18'0 0.0
2018-Jan-10 21:59N 37°48' W 122°18'0 0.0
2018-Jan-10 21:29N 37°48' W 122°18'0 0.0
2018-Jan-10 20:59N 37°48' W 122°18'0 0.0
2018-Jan-10 20:29N 37°48' W 122°18'0 0.0
2018-Jan-10 19:59N 37°48' W 122°18'0 0.0
2018-Jan-10 19:29N 37°48' W 122°18'0 0.0
2018-Jan-10 18:59N 37°48' W 122°18'0 0.0
2018-Jan-10 18:29N 37°48' W 122°18'0 0.0
2018-Jan-10 17:59N 37°48' W 122°18'0 0.0
2018-Jan-10 17:29N 37°48' W 122°18'0 0.0
2018-Jan-10 16:59N 37°48' W 122°18'0 0.0
2018-Jan-10 16:29N 37°48' W 122°18'0 0.0
2018-Jan-10 15:59N 37°48' W 122°18'0 0.0
2018-Jan-10 15:29N 37°48' W 122°18'0 0.0
2018-Jan-10 14:59N 37°48' W 122°18'0 0.5
2018-Jan-10 14:30N 37°48' W 122°18'0 0.3
2018-Jan-10 14:00N 37°48' W 122°18'0 0.0
2018-Jan-10 13:30N 37°48' W 122°18'0 0.0
2018-Jan-10 13:00N 37°48' W 122°18'0 1.0
2018-Jan-10 12:30N 37°48' W 122°18'3 6.4
2018-Jan-10 12:00N 37°48' W 122°22'510.0
2018-Jan-10 11:30N 37°49' W 122°29'714.4
2018-Jan-10 11:01N 37°46' W 122°37'510.2
2018-Jan-10 10:30N 37°43' W 122°42'714.1
2018-Jan-10 10:00N 37°39' W 122°50'815.9
2018-Jan-10 09:31N 37°35' W 122°58'815.8
2018-Jan-10 08:59N 37°30' W 123°07'42220.1
2018-Jan-09 12:00N 34°06' W 130°42'   330 / 241015.0 14.010.216.0
Track history (hours):
 
Tides and Currents Weather Stations Pressure Air Temp Water Temp Dewpoint Dewpoint Depression Visibility Wind Speed Wind Dir Waves Ship Positions

Mokihana

Owner: MATSON NAVIGATION CO, Tacoma, WA. More information available from US FCC via Universal Licensing System and Coast Guard Vessel Documentation Center.

Last reported at 2018-Jan-18 00:00 UTC. Time now 2018-Jan-22 22:28 UTC.
Position N 21°36' W 156°00'.

Type: Ship. MMSI: 367196000.

Wind from 050 at 30 knots

Barometer 1021.8 mb
Air temperature 23.5 ° C
Dewpoint 19.6 ° C
Water temperature 23.3 ° C

Date/timePositionNaut miles runAvg speedWind from/ knotsBaromVisibWave heightAir tempDewpointWater temp
2018-Jan-18 00:00N 21°36' W 156°00'   050 / 301021.8 23.519.623.3
2018-Jan-15 12:00N 25°36' W 133°30'52121.7 330 / 171019.210.8 19.016.521.0
2018-Jan-14 12:00N 29°36' W 124°48'417 8.1 360 / 121019.0 16.012.417.0
2018-Jan-12 08:26N 33°41' W 118°11'4 9.2
2018-Jan-12 08:00N 33°37' W 118°14'4 8.9
2018-Jan-12 07:30N 33°36' W 118°19'5 9.0
2018-Jan-12 07:00N 33°37' W 118°24'510.0
2018-Jan-12 06:30N 33°40' W 118°29'5 9.9
2018-Jan-12 05:58N 33°43' W 118°35'510.0
2018-Jan-12 05:30N 33°45' W 118°39'914.1
2018-Jan-12 04:53N 33°49' W 118°49'718.6
2018-Jan-12 04:30N 33°53' W 118°56'1020.3
2018-Jan-12 04:00N 33°58' W 119°06'1020.0
2018-Jan-12 03:29N 34°03' W 119°17'1019.9
2018-Jan-12 03:00N 34°05' W 119°29'1020.4
2018-Jan-12 02:30N 34°08' W 119°40'1020.5
2018-Jan-12 02:00N 34°11' W 119°53'1020.5
2018-Jan-12 01:29N 34°14' W 120°05'1119.9
2018-Jan-12 00:57N 34°15' W 120°17'920.2
2018-Jan-12 00:30N 34°15' W 120°29'1019.9
2018-Jan-12 00:00N 34°17' W 120°40'919.1
2018-Jan-11 23:30N 34°24' W 120°48'1019.5
2018-Jan-11 23:00N 34°30' W 120°57'1020.4
2018-Jan-11 22:31N 34°38' W 121°04'1020.4
2018-Jan-11 22:00N 34°47' W 121°11'1020.7
2018-Jan-11 21:31N 34°55' W 121°19'1020.4
2018-Jan-11 21:01N 35°04' W 121°26'1020.6
2018-Jan-11 20:31N 35°12' W 121°33'1020.6
2018-Jan-11 20:01N 35°20' W 121°40'1020.0
2018-Jan-11 19:30N 35°29' W 121°47'1020.1
2018-Jan-11 19:00N 35°37' W 121°55'1020.2
2018-Jan-11 18:30N 35°45' W 122°02'1020.3
2018-Jan-11 18:00N 35°53' W 122°09'1020.1
2018-Jan-11 17:30N 36°01' W 122°16'1019.8
2018-Jan-11 17:00N 36°10' W 122°22'1019.9
2018-Jan-11 16:30N 36°20' W 122°26'1019.8
2018-Jan-11 16:00N 36°29' W 122°29'1219.6
2018-Jan-11 15:25N 36°40' W 122°33'819.4
2018-Jan-11 14:59N 36°48' W 122°36'1019.6
2018-Jan-11 14:29N 36°57' W 122°40'1019.7
2018-Jan-11 13:58N 37°08' W 122°43'920.0
2018-Jan-11 13:31N 37°17' W 122°43'1020.3
2018-Jan-11 13:01N 37°27' W 122°43'1019.5
2018-Jan-11 12:31N 37°37' W 122°43'816.4
2018-Jan-11 12:00N 37°45' W 122°41'713.3
2018-Jan-11 11:31N 37°47' W 122°33'714.8
2018-Jan-11 11:01N 37°50' W 122°25'5 9.7
2018-Jan-11 10:30N 37°48' W 122°19'1 2.0
2018-Jan-11 10:00N 37°48' W 122°18'0 0.0
2018-Jan-11 09:31N 37°48' W 122°18'0 0.0
2018-Jan-11 08:59N 37°48' W 122°18'0 0.0
2018-Jan-11 08:29N 37°48' W 122°18'0 0.0
2018-Jan-11 07:59N 37°48' W 122°18'0 0.0
2018-Jan-11 07:29N 37°48' W 122°18'0 0.0
2018-Jan-11 06:59N 37°48' W 122°18'0 0.0
2018-Jan-11 06:29N 37°48' W 122°18'0 0.0
2018-Jan-11 05:59N 37°48' W 122°18'0 0.0
2018-Jan-11 05:26N 37°48' W 122°18'0 0.0
2018-Jan-11 04:59N 37°48' W 122°18'0 0.0
2018-Jan-11 04:29N 37°48' W 122°18'0 0.0
2018-Jan-11 03:59N 37°48' W 122°18'0 0.0
2018-Jan-11 03:29N 37°48' W 122°18'0 0.0
2018-Jan-11 02:59N 37°48' W 122°18'0 0.0
2018-Jan-11 02:29N 37°48' W 122°18'0 0.0
2018-Jan-11 01:59N 37°48' W 122°18'0 0.0
2018-Jan-11 01:29N 37°48' W 122°18'0 0.0
2018-Jan-11 00:59N 37°48' W 122°18'0 0.0
2018-Jan-11 00:29N 37°48' W 122°18'0 0.0
2018-Jan-10 23:59N 37°48' W 122°18'0 0.0
2018-Jan-10 23:29N 37°48' W 122°18'0 0.0
2018-Jan-10 22:59N 37°48' W 122°18'0 0.0
2018-Jan-10 22:29N 37°48' W 122°18'0 0.0
2018-Jan-10 21:59N 37°48' W 122°18'0 0.0
2018-Jan-10 21:29N 37°48' W 122°18'0 0.0
2018-Jan-10 20:59N 37°48' W 122°18'0 0.0
2018-Jan-10 20:29N 37°48' W 122°18'0 0.0
2018-Jan-10 19:59N 37°48' W 122°18'0 0.0
2018-Jan-10 19:29N 37°48' W 122°18'0 0.0
2018-Jan-10 18:59N 37°48' W 122°18'0 0.0
2018-Jan-10 18:29N 37°48' W 122°18'0 0.0
2018-Jan-10 17:59N 37°48' W 122°18'0 0.0
2018-Jan-10 17:29N 37°48' W 122°18'0 0.0
2018-Jan-10 16:59N 37°48' W 122°18'0 0.0
2018-Jan-10 16:29N 37°48' W 122°18'0 0.0
2018-Jan-10 15:59N 37°48' W 122°18'0 0.0
2018-Jan-10 15:29N 37°48' W 122°18'0 0.0
2018-Jan-10 14:59N 37°48' W 122°18'0 0.5
2018-Jan-10 14:30N 37°48' W 122°18'0 0.3
2018-Jan-10 14:00N 37°48' W 122°18'0 0.0
2018-Jan-10 13:30N 37°48' W 122°18'0 0.0
2018-Jan-10 13:00N 37°48' W 122°18'0 1.0
2018-Jan-10 12:30N 37°48' W 122°18'3 6.4
2018-Jan-10 12:00N 37°48' W 122°22'510.0
2018-Jan-10 11:30N 37°49' W 122°29'714.4
2018-Jan-10 11:01N 37°46' W 122°37'510.2
2018-Jan-10 10:30N 37°43' W 122°42'714.1
2018-Jan-10 10:00N 37°39' W 122°50'815.9
2018-Jan-10 09:31N 37°35' W 122°58'815.8
2018-Jan-10 08:59N 37°30' W 123°07'42220.1
2018-Jan-09 12:00N 34°06' W 130°42'   330 / 241015.0 14.010.216.0

Dump ship's entire track history